Time;durP1;ratioP1;P1;durP2;ratioP2;P2;SDS_P1;SDS_P2;PMS_P1;PMS_P2;Temp;Humidity;BMP_temperature;BMP_pressure;BME280_temperature;BME280_humidity;BME280_pressure;Samples;Min_cycle;Max_cycle;Signal;HPM_P1;HPM_P2
2021/10/12 00:01:11;;;;;;;48.90;23.90;;;9.00;93.80;;;;;;4866663;29;20104;-66
2021/10/12 00:03:37;;;;;;;51.38;23.80;;;9.00;93.70;;;;;;4869598;29;20030;-66
2021/10/12 00:06:02;;;;;;;49.47;24.83;;;9.00;93.80;;;;;;4862542;29;20569;-66
2021/10/12 00:08:28;;;;;;;52.53;26.05;;;9.00;93.90;;;;;;4869067;29;20735;-66
2021/10/12 00:10:54;;;;;;;51.20;24.52;;;9.00;93.80;;;;;;4875731;29;20036;-67
2021/10/12 00:13:20;;;;;;;52.25;25.35;;;9.00;93.80;;;;;;4874238;29;20462;-66
2021/10/12 00:15:45;;;;;;;52.65;25.58;;;9.00;93.80;;;;;;4864789;29;20125;-67
2021/10/12 00:18:11;;;;;;;51.20;24.95;;;8.90;93.80;;;;;;4866227;29;20045;-67
2021/10/12 00:20:37;;;;;;;48.40;23.77;;;8.90;93.80;;;;;;4876053;29;20032;-67
2021/10/12 00:23:06;;;;;;;47.20;23.85;;;8.90;93.80;;;;;;4860836;29;20036;-66
2021/10/12 00:25:31;;;;;;;45.53;23.80;;;8.90;93.90;;;;;;4865215;29;20431;-68
2021/10/12 00:27:57;;;;;;;50.70;25.60;;;8.90;93.90;;;;;;4870071;29;20044;-67
2021/10/12 00:30:22;;;;;;;47.92;25.13;;;8.90;93.90;;;;;;4884935;29;20033;-66
2021/10/12 00:32:48;;;;;;;46.38;23.73;;;8.90;94.00;;;;;;4865721;29;20033;-66
2021/10/12 00:35:14;;;;;;;52.10;24.98;;;8.90;94.00;;;;;;4869383;29;20029;-67
2021/10/12 00:37:39;;;;;;;51.83;25.52;;;8.90;94.00;;;;;;4869418;29;20096;-66
2021/10/12 00:40:05;;;;;;;48.17;24.30;;;8.90;94.00;;;;;;4869066;29;20057;-66
2021/10/12 00:42:31;;;;;;;52.20;25.63;;;9.00;94.00;;;;;;4872302;29;20742;-66
2021/10/12 00:44:57;;;;;;;50.53;25.15;;;8.90;94.00;;;;;;4875533;29;20061;-66
2021/10/12 00:47:23;;;;;;;47.20;25.02;;;8.90;94.00;;;;;;4863620;29;20037;-67
2021/10/12 00:49:49;;;;;;;48.63;24.88;;;8.90;94.00;;;;;;4874272;29;20478;-66
2021/10/12 00:52:14;;;;;;;54.63;25.38;;;8.90;93.90;;;;;;4876658;29;20033;-67
2021/10/12 00:54:41;;;;;;;52.65;25.55;;;8.90;94.00;;;;;;4866069;29;20060;-66
2021/10/12 00:57:07;;;;;;;47.03;25.13;;;8.90;94.00;;;;;;4870246;29;20028;-66
2021/10/12 00:59:34;;;;;;;50.67;24.00;;;8.90;94.00;;;;;;4875149;29;20064;-66
2021/10/12 01:02:02;;;;;;;52.72;24.60;;;8.90;94.10;;;;;;4868811;29;20406;-67
2021/10/12 01:04:27;;;;;;;46.97;24.02;;;8.90;94.10;;;;;;4872979;29;20146;-67
2021/10/12 01:06:53;;;;;;;45.00;22.92;;;8.80;94.10;;;;;;4871165;29;20040;-67
2021/10/12 01:09:18;;;;;;;48.42;23.02;;;8.90;94.20;;;;;;4868433;29;20040;-67
2021/10/12 01:11:45;;;;;;;45.45;23.98;;;8.90;94.20;;;;;;4871608;29;20055;-67
2021/10/12 01:14:10;;;;;;;49.92;24.02;;;8.90;94.20;;;;;;4863603;29;20045;-67
2021/10/12 01:16:36;;;;;;;44.83;23.80;;;8.90;94.20;;;;;;4864169;29;20048;-67
2021/10/12 01:19:07;;;;;;;43.67;23.80;;;9.00;94.30;;;;;;4871651;29;20032;-67
2021/10/12 01:21:49;;;;;;;51.00;24.38;;;9.00;94.30;;;;;;4875698;29;20036;-67
2021/10/12 01:24:16;;;;;;;52.60;25.40;;;9.00;94.30;;;;;;4874786;29;20041;-66
2021/10/12 01:26:43;;;;;;;45.13;22.45;;;9.00;94.20;;;;;;4873394;29;20044;-66
2021/10/12 01:29:10;;;;;;;43.35;22.50;;;9.00;94.30;;;;;;4879129;29;20063;-66
2021/10/12 01:31:36;;;;;;;45.28;23.02;;;9.00;94.30;;;;;;4885388;29;20069;-66
2021/10/12 01:34:13;;;;;;;43.80;21.77;;;9.00;94.30;;;;;;4874617;29;20116;-67
2021/10/12 01:36:39;;;;;;;52.95;23.77;;;9.10;94.40;;;;;;4872796;29;20040;-66
2021/10/12 01:39:05;;;;;;;45.95;22.50;;;9.10;94.30;;;;;;4864315;29;20029;-66
2021/10/12 01:41:30;;;;;;;50.08;24.33;;;9.10;94.50;;;;;;4867486;29;20104;-66
2021/10/12 01:43:56;;;;;;;47.72;24.05;;;9.10;94.20;;;;;;4874701;29;20037;-66
2021/10/12 01:46:22;;;;;;;45.60;22.83;;;9.00;94.20;;;;;;4873086;29;20047;-66
2021/10/12 01:48:48;;;;;;;44.88;23.85;;;9.00;94.10;;;;;;4860884;29;20042;-67
2021/10/12 01:51:14;;;;;;;49.13;23.08;;;9.00;94.20;;;;;;4860192;29;20060;-67
2021/10/12 01:53:39;;;;;;;49.35;23.50;;;9.00;94.20;;;;;;4868804;29;20086;-67
2021/10/12 01:56:05;;;;;;;46.05;22.95;;;9.00;94.20;;;;;;4858553;29;20029;-66
2021/10/12 01:58:31;;;;;;;49.33;23.88;;;8.90;94.20;;;;;;4860206;29;20036;-66
2021/10/12 02:00:58;;;;;;;50.35;24.23;;;8.90;94.20;;;;;;4861091;29;20037;-66
2021/10/12 02:03:23;;;;;;;49.60;23.92;;;8.90;94.20;;;;;;4874472;29;20033;-66
2021/10/12 02:05:49;;;;;;;50.35;24.15;;;8.90;94.20;;;;;;4875514;29;20089;-66
2021/10/12 02:08:15;;;;;;;44.30;23.05;;;8.90;94.30;;;;;;4875078;29;20025;-66
2021/10/12 02:10:40;;;;;;;54.83;24.88;;;8.90;94.60;;;;;;4871541;29;20032;-67
2021/10/12 02:13:06;;;;;;;47.25;22.63;;;9.00;94.40;;;;;;4865389;29;20025;-67
2021/10/12 02:15:31;;;;;;;47.60;23.05;;;9.00;94.40;;;;;;4859625;29;20038;-66
2021/10/12 02:17:57;;;;;;;46.75;23.58;;;9.00;94.40;;;;;;4868097;29;20366;-66
2021/10/12 02:20:23;;;;;;;41.33;22.70;;;9.00;94.40;;;;;;4878653;29;20394;-66
2021/10/12 02:22:49;;;;;;;45.45;22.88;;;9.00;94.30;;;;;;4877814;29;20043;-66
2021/10/12 02:25:14;;;;;;;46.40;22.42;;;9.00;94.40;;;;;;4875464;29;20033;-67
2021/10/12 02:27:40;;;;;;;44.70;22.05;;;9.00;94.40;;;;;;4861538;29;20033;-66
2021/10/12 02:30:07;;;;;;;50.13;24.83;;;9.00;94.40;;;;;;4880361;29;20693;-66
2021/10/12 02:32:33;;;;;;;50.88;23.80;;;9.00;94.50;;;;;;4884542;29;20120;-67
2021/10/12 02:34:59;;;;;;;46.20;23.10;;;9.00;94.40;;;;;;4868985;29;20061;-66
2021/10/12 02:37:24;;;;;;;42.65;22.15;;;9.00;94.40;;;;;;4873398;29;20036;-66
2021/10/12 02:39:50;;;;;;;46.47;22.50;;;9.00;94.40;;;;;;4870324;29;20025;-67
2021/10/12 02:42:15;;;;;;;44.58;22.20;;;9.00;94.40;;;;;;4870625;29;20358;-67
2021/10/12 02:44:41;;;;;;;47.40;23.23;;;8.90;94.40;;;;;;4873206;29;20029;-66
2021/10/12 02:47:07;;;;;;;44.45;22.08;;;8.90;94.50;;;;;;4878269;29;20033;-67
2021/10/12 02:49:32;;;;;;;47.95;23.52;;;9.00;94.50;;;;;;4868532;29;20036;-67
2021/10/12 02:51:58;;;;;;;45.05;22.35;;;9.00;94.50;;;;;;4875185;29;20048;-66
2021/10/12 02:54:23;;;;;;;44.83;22.85;;;8.90;94.50;;;;;;4866360;29;20029;-66
2021/10/12 02:56:49;;;;;;;43.78;21.33;;;8.90;94.50;;;;;;4864139;29;20092;-67
2021/10/12 02:59:15;;;;;;;46.63;22.88;;;9.00;94.60;;;;;;4878617;29;20033;-66
2021/10/12 03:01:40;;;;;;;45.97;22.20;;;9.00;94.60;;;;;;4878027;29;20335;-66
2021/10/12 03:04:06;;;;;;;41.17;20.63;;;9.00;94.60;;;;;;4864599;29;20371;-67
2021/10/12 03:06:32;;;;;;;43.67;22.27;;;9.00;94.60;;;;;;4877538;29;20045;-67
2021/10/12 03:08:58;;;;;;;42.25;21.67;;;9.00;94.60;;;;;;4866310;29;20061;-68
2021/10/12 03:11:23;;;;;;;44.55;21.20;;;8.90;94.50;;;;;;4878452;29;20108;-69
2021/10/12 03:13:49;;;;;;;42.13;21.30;;;8.90;94.60;;;;;;4864732;29;20072;-66
2021/10/12 03:16:14;;;;;;;42.85;20.88;;;8.90;94.60;;;;;;4872679;29;20025;-68
2021/10/12 03:18:40;;;;;;;40.17;19.75;;;8.90;94.60;;;;;;4874973;29;20029;-66
2021/10/12 03:21:07;;;;;;;44.78;20.58;;;9.00;94.70;;;;;;4875882;29;20061;-69
2021/10/12 03:23:33;;;;;;;43.78;20.58;;;8.90;94.60;;;;;;4871015;29;20029;-67
2021/10/12 03:25:58;;;;;;;44.20;20.40;;;9.00;94.60;;;;;;4870295;29;20399;-67
2021/10/12 03:28:24;;;;;;;37.63;19.60;;;9.00;94.60;;;;;;4863682;29;20061;-68
2021/10/12 03:30:50;;;;;;;46.78;20.63;;;9.00;94.70;;;;;;4884935;29;20063;-66
2021/10/12 03:33:16;;;;;;;40.03;21.55;;;9.00;94.60;;;;;;4874209;29;20034;-67
2021/10/12 03:35:47;;;;;;;43.85;20.17;;;9.00;94.60;;;;;;4877304;29;20509;-66
2021/10/12 03:38:13;;;;;;;39.60;20.70;;;8.90;94.60;;;;;;4871806;29;20029;-67
2021/10/12 03:40:38;;;;;;;42.60;20.00;;;9.00;94.70;;;;;;4874783;29;20044;-68
2021/10/12 03:43:04;;;;;;;42.42;20.05;;;9.00;94.70;;;;;;4869055;29;20113;-67
2021/10/12 03:45:30;;;;;;;41.33;20.27;;;9.00;94.70;;;;;;4871897;29;20063;-66
2021/10/12 03:47:55;;;;;;;40.22;20.23;;;9.00;94.70;;;;;;4872751;29;20065;-66
2021/10/12 03:50:21;;;;;;;42.70;20.33;;;9.00;94.80;;;;;;4871413;29;20095;-67
2021/10/12 03:52:46;;;;;;;41.03;19.67;;;9.00;94.70;;;;;;4871619;29;20025;-69
2021/10/12 03:55:12;;;;;;;38.72;19.35;;;9.00;94.70;;;;;;4871565;29;20039;-67
2021/10/12 03:57:38;;;;;;;35.63;18.48;;;9.00;94.70;;;;;;4864079;29;20033;-67
2021/10/12 04:00:06;;;;;;;38.75;19.90;;;9.00;94.80;;;;;;4870498;29;20037;-67
2021/10/12 04:02:32;;;;;;;31.05;16.98;;;9.00;94.80;;;;;;4876272;29;20044;-68
2021/10/12 04:04:57;;;;;;;40.80;19.13;;;9.00;94.80;;;;;;4874853;29;20115;-66
2021/10/12 04:07:23;;;;;;;39.85;18.95;;;9.00;94.80;;;;;;4876074;29;20037;-68
2021/10/12 04:09:48;;;;;;;38.15;18.40;;;9.00;94.80;;;;;;4872342;29;20101;-67
2021/10/12 04:12:14;;;;;;;35.45;18.35;;;9.00;94.70;;;;;;4874823;29;20316;-67
2021/10/12 04:14:40;;;;;;;36.47;18.67;;;9.00;94.70;;;;;;4874127;29;20443;-67
2021/10/12 04:17:05;;;;;;;38.75;18.70;;;9.00;94.70;;;;;;4874632;29;20065;-68
2021/10/12 04:19:31;;;;;;;37.70;16.75;;;9.00;94.80;;;;;;4869836;29;20045;-67
2021/10/12 04:21:56;;;;;;;26.67;14.95;;;9.00;94.80;;;;;;4857819;29;20029;-67
2021/10/12 04:26:50;;;;;;;34.25;15.82;;;9.10;94.90;;;;;;4865423;29;20052;-67
2021/10/12 04:29:15;;;;;;;29.40;15.80;;;9.10;94.80;;;;;;4874714;29;20021;-67
2021/10/12 04:31:41;;;;;;;34.05;15.70;;;9.10;94.80;;;;;;4876335;29;20085;-67
2021/10/12 04:34:07;;;;;;;31.02;16.50;;;9.10;94.80;;;;;;4875025;29;20394;-67
2021/10/12 04:36:32;;;;;;;31.65;16.85;;;9.10;94.80;;;;;;4875592;29;20041;-67
2021/10/12 04:38:58;;;;;;;31.63;16.15;;;9.00;94.70;;;;;;4873221;29;20081;-65
2021/10/12 04:41:23;;;;;;;29.20;14.93;;;9.00;94.70;;;;;;4884238;29;20048;-67
2021/10/12 04:43:49;;;;;;;33.95;16.20;;;9.00;94.80;;;;;;4881420;29;20492;-68
2021/10/12 04:46:15;;;;;;;38.30;17.02;;;9.00;94.80;;;;;;4878428;29;20122;-67
2021/10/12 04:48:41;;;;;;;28.80;15.80;;;9.10;94.80;;;;;;4874641;29;20029;-66
2021/10/12 04:51:06;;;;;;;33.45;16.10;;;9.10;94.90;;;;;;4875989;29;20464;-66
2021/10/12 04:53:32;;;;;;;28.63;14.35;;;9.10;94.90;;;;;;4872736;29;20029;-67
2021/10/12 04:55:57;;;;;;;32.40;14.93;;;9.10;94.80;;;;;;4876627;29;20109;-68
2021/10/12 04:58:23;;;;;;;26.42;15.40;;;9.10;94.90;;;;;;4876288;29;20032;-68
2021/10/12 05:00:49;;;;;;;35.75;15.88;;;9.10;94.90;;;;;;4876249;29;20032;-67
2021/10/12 05:03:14;;;;;;;27.60;14.52;;;9.10;94.90;;;;;;4874821;29;20478;-67
2021/10/12 05:05:40;;;;;;;30.15;16.15;;;9.10;94.90;;;;;;4875031;29;20310;-68
2021/10/12 05:08:05;;;;;;;28.13;15.90;;;9.10;94.90;;;;;;4875901;29;20188;-68
2021/10/12 05:10:31;;;;;;;35.78;15.95;;;9.10;94.90;;;;;;4875578;29;20040;-66
2021/10/12 05:12:56;;;;;;;29.08;15.70;;;9.10;94.80;;;;;;4874850;29;20033;-68
2021/10/12 05:15:27;;;;;;;32.17;15.98;;;9.10;94.80;;;;;;4875917;29;20081;-67
2021/10/12 05:17:52;;;;;;;37.60;16.52;;;9.00;94.90;;;;;;4875746;29;20025;-67
2021/10/12 05:20:18;;;;;;;28.45;15.93;;;9.10;95.00;;;;;;4875611;29;20033;-67
2021/10/12 05:22:44;;;;;;;30.67;17.20;;;9.10;94.90;;;;;;4874351;29;20028;-66
2021/10/12 05:25:10;;;;;;;29.80;15.68;;;9.10;94.90;;;;;;4874767;29;20252;-66
2021/10/12 05:27:37;;;;;;;31.55;17.30;;;9.10;94.90;;;;;;4875489;29;20107;-67
2021/10/12 05:30:08;;;;;;;32.85;16.13;;;9.10;94.90;;;;;;4870881;29;20124;-65
2021/10/12 05:32:38;;;;;;;31.08;16.65;;;9.00;94.90;;;;;;4872235;29;20029;-63
2021/10/12 05:35:05;;;;;;;29.70;17.00;;;9.00;94.90;;;;;;4871395;29;20643;-66
2021/10/12 05:37:31;;;;;;;41.67;18.55;;;9.00;94.90;;;;;;4874050;29;20028;-70
2021/10/12 05:39:57;;;;;;;37.53;17.30;;;9.00;94.90;;;;;;4872721;29;20025;-65
2021/10/12 05:42:22;;;;;;;34.83;17.45;;;9.00;94.90;;;;;;4873839;29;20029;-66
2021/10/12 05:44:48;;;;;;;33.90;17.80;;;9.00;94.90;;;;;;4869386;29;20028;-66
2021/10/12 05:47:14;;;;;;;36.88;17.42;;;8.90;95.00;;;;;;4871201;29;20501;-68
2021/10/12 05:49:41;;;;;;;39.67;18.92;;;8.90;95.00;;;;;;4876452;29;20096;-68
2021/10/12 05:52:08;;;;;;;35.50;17.90;;;9.00;95.00;;;;;;4880238;29;20112;-68
2021/10/12 05:54:38;;;;;;;33.25;17.05;;;8.90;95.00;;;;;;4877673;29;20482;-66
2021/10/12 05:57:07;;;;;;;30.25;16.73;;;8.90;95.00;;;;;;4880473;29;20073;-67
2021/10/12 05:59:33;;;;;;;34.47;16.60;;;8.90;95.10;;;;;;4879493;29;20020;-66
2021/10/12 06:01:59;;;;;;;34.22;18.08;;;8.90;95.10;;;;;;4879740;29;20033;-67
2021/10/12 06:04:25;;;;;;;35.58;18.00;;;8.90;95.10;;;;;;4879724;29;20041;-66
2021/10/12 06:06:52;;;;;;;29.02;17.55;;;8.90;95.10;;;;;;4880214;29;20029;-65
2021/10/12 06:09:17;;;;;;;35.45;18.10;;;8.90;95.10;;;;;;4880393;29;20077;-66
2021/10/12 06:11:43;;;;;;;34.55;16.90;;;8.90;95.10;;;;;;4880033;29;20478;-66
2021/10/12 06:14:09;;;;;;;34.25;17.27;;;8.90;95.10;;;;;;4879386;29;20032;-66
2021/10/12 06:16:34;;;;;;;31.48;17.15;;;8.90;95.20;;;;;;4879653;29;20472;-66
2021/10/12 06:19:00;;;;;;;34.72;18.45;;;8.90;95.20;;;;;;4879913;29;20257;-66
2021/10/12 06:21:26;;;;;;;33.03;16.70;;;9.00;95.20;;;;;;4880293;29;20041;-66
2021/10/12 06:23:51;;;;;;;27.15;15.88;;;8.90;95.30;;;;;;4878960;29;20036;-66
2021/10/12 06:26:17;;;;;;;41.20;17.25;;;9.00;95.20;;;;;;4871877;29;20045;-65
2021/10/12 06:28:43;;;;;;;31.98;16.88;;;9.00;95.40;;;;;;4877601;29;20481;-65
2021/10/12 06:31:09;;;;;;;37.55;18.02;;;9.00;95.30;;;;;;4879259;29;20061;-66
2021/10/12 06:33:34;;;;;;;36.78;17.42;;;9.00;95.30;;;;;;4877326;29;20401;-67
2021/10/12 06:36:00;;;;;;;37.20;18.38;;;9.00;95.30;;;;;;4878697;29;20085;-66
2021/10/12 06:38:26;;;;;;;31.52;16.63;;;9.00;95.30;;;;;;4879920;29;20032;-66
2021/10/12 06:40:52;;;;;;;28.00;16.20;;;9.00;95.40;;;;;;4879332;29;20135;-66
2021/10/12 06:43:18;;;;;;;34.55;17.25;;;9.00;95.40;;;;;;4871681;29;20462;-65
2021/10/12 06:45:44;;;;;;;32.80;17.55;;;9.10;95.50;;;;;;4876906;29;20033;-65
2021/10/12 06:48:10;;;;;;;30.83;17.33;;;9.10;95.40;;;;;;4878859;29;20047;-65
2021/10/12 06:50:36;;;;;;;30.45;16.42;;;9.10;95.40;;;;;;4879088;29;20112;-66
2021/10/12 06:53:03;;;;;;;35.05;16.90;;;9.10;95.40;;;;;;4878400;29;20537;-65
2021/10/12 06:55:28;;;;;;;29.50;15.32;;;9.10;95.40;;;;;;4879037;29;20029;-66
2021/10/12 06:57:54;;;;;;;31.92;16.98;;;9.20;95.50;;;;;;4879124;29;20450;-66
2021/10/12 07:00:20;;;;;;;30.73;16.10;;;9.20;95.50;;;;;;4878733;29;20041;-66
2021/10/12 07:02:46;;;;;;;28.40;15.68;;;9.20;95.50;;;;;;4877142;29;20604;-66
2021/10/12 07:05:13;;;;;;;33.33;17.38;;;9.20;95.50;;;;;;4878990;29;20470;-65
2021/10/12 07:07:39;;;;;;;38.05;19.88;;;9.30;95.50;;;;;;4878885;29;20097;-65
2021/10/12 07:10:07;;;;;;;31.23;16.90;;;9.30;95.50;;;;;;4877650;29;20127;-64
2021/10/12 07:12:33;;;;;;;32.72;18.30;;;9.30;95.50;;;;;;4876754;29;20047;-65
2021/10/12 07:14:59;;;;;;;36.10;18.63;;;9.30;95.60;;;;;;4871185;29;20470;-65
2021/10/12 07:17:24;;;;;;;33.55;19.13;;;9.30;95.50;;;;;;4874547;29;20398;-66
2021/10/12 07:19:50;;;;;;;39.15;19.20;;;9.30;95.50;;;;;;4878095;29;20029;-65
2021/10/12 07:22:17;;;;;;;33.67;19.60;;;9.40;95.50;;;;;;4877502;29;20057;-66
2021/10/12 07:24:43;;;;;;;29.85;18.30;;;9.40;95.50;;;;;;4875674;29;20025;-65
2021/10/12 07:27:08;;;;;;;33.25;17.33;;;9.40;95.50;;;;;;4877432;29;20044;-65
2021/10/12 07:29:35;;;;;;;27.13;16.52;;;9.40;95.50;;;;;;4877679;29;20033;-66
2021/10/12 07:32:00;;;;;;;29.17;16.88;;;9.40;95.50;;;;;;4872873;29;20040;-66
2021/10/12 07:34:26;;;;;;;31.80;17.00;;;9.40;95.50;;;;;;4880495;29;20028;-66
2021/10/12 07:36:52;;;;;;;34.17;18.77;;;9.30;95.40;;;;;;4873005;29;20029;-66
2021/10/12 07:39:17;;;;;;;30.95;17.60;;;9.30;95.50;;;;;;4866088;29;20025;-68
2021/10/12 07:41:43;;;;;;;31.95;17.85;;;9.30;95.50;;;;;;4886052;29;20497;-65
2021/10/12 07:44:08;;;;;;;28.90;17.35;;;9.40;95.60;;;;;;4876474;29;20064;-66
2021/10/12 07:46:34;;;;;;;32.85;18.33;;;9.40;95.60;;;;;;4876795;29;20037;-66
2021/10/12 07:49:00;;;;;;;32.47;18.25;;;9.40;95.60;;;;;;4878380;29;20029;-66
2021/10/12 07:51:27;;;;;;;30.00;17.35;;;9.50;95.60;;;;;;4878168;29;20538;-65
2021/10/12 07:53:55;;;;;;;31.45;16.25;;;9.50;95.60;;;;;;4874688;29;20386;-66
2021/10/12 07:56:36;;;;;;;35.03;18.80;;;9.40;95.50;;;;;;4877509;29;20111;-65
2021/10/12 07:59:07;;;;;;;29.40;15.40;;;9.40;95.50;;;;;;4878023;29;20018;-66
2021/10/12 08:01:34;;;;;;;28.83;17.10;;;9.40;95.50;;;;;;4877782;29;20047;-66
2021/10/12 08:04:03;;;;;;;26.83;15.02;;;9.40;95.60;;;;;;4876836;29;20029;-65
2021/10/12 08:06:29;;;;;;;25.27;15.10;;;9.40;95.70;;;;;;4878111;29;20032;-66
2021/10/12 08:08:55;;;;;;;24.90;14.32;;;9.40;95.50;;;;;;4877228;29;20077;-67
2021/10/12 08:11:25;;;;;;;23.20;14.13;;;9.40;95.50;;;;;;4876229;29;20041;-67
2021/10/12 08:13:55;;;;;;;24.60;14.30;;;9.40;95.50;;;;;;4857784;29;20025;-67
2021/10/12 08:16:32;;;;;;;24.15;14.77;;;9.40;95.70;;;;;;4858016;29;20482;-67
2021/10/12 08:19:05;;;;;;;25.00;14.30;;;9.50;95.70;;;;;;4876396;29;20044;-67
2021/10/12 08:21:31;;;;;;;24.77;14.02;;;9.50;95.70;;;;;;4877750;29;20389;-67
2021/10/12 08:23:59;;;;;;;31.02;17.15;;;9.60;95.70;;;;;;4876134;29;20476;-67
2021/10/12 08:26:25;;;;;;;29.58;15.52;;;9.60;95.80;;;;;;4876703;29;20130;-67
2021/10/12 08:28:52;;;;;;;26.48;15.50;;;9.60;95.80;;;;;;4884119;29;20107;-67
2021/10/12 08:31:18;;;;;;;23.58;15.30;;;9.70;95.70;;;;;;4880785;29;20438;-67
2021/10/12 08:33:45;;;;;;;24.75;14.68;;;9.70;95.60;;;;;;4876371;29;20061;-67
2021/10/12 08:36:11;;;;;;;23.17;13.90;;;9.70;95.60;;;;;;4876932;29;20112;-66
2021/10/12 08:38:38;;;;;;;23.95;14.68;;;9.70;95.60;;;;;;4876248;29;20565;-65
2021/10/12 08:41:05;;;;;;;22.17;14.63;;;9.80;95.70;;;;;;4877014;29;20033;-67
2021/10/12 08:43:32;;;;;;;24.55;15.15;;;9.70;95.60;;;;;;4869586;29;20390;-66
2021/10/12 08:45:59;;;;;;;21.85;13.40;;;9.80;95.70;;;;;;4878923;29;20076;-67
2021/10/12 08:48:26;;;;;;;25.88;14.35;;;9.80;95.60;;;;;;4877541;29;20065;-64
2021/10/12 08:50:52;;;;;;;20.95;13.55;;;9.80;95.50;;;;;;4874782;29;20029;-65
2021/10/12 08:53:18;;;;;;;20.40;12.73;;;9.80;95.50;;;;;;4876095;29;20031;-67
2021/10/12 08:55:43;;;;;;;21.67;13.18;;;9.80;95.50;;;;;;4876786;29;20021;-65
2021/10/12 08:58:11;;;;;;;17.23;12.65;;;9.80;95.50;;;;;;4876576;29;20108;-67
2021/10/12 09:00:38;;;;;;;17.83;11.98;;;9.90;95.70;;;;;;4877217;29;20494;-64
2021/10/12 09:06:02;;;;;;;16.83;10.95;;;10.00;95.50;;;;;;4877500;29;20036;-64
2021/10/12 09:08:35;;;;;;;20.40;10.38;;;10.00;95.40;;;;;;4868813;29;20040;-65
2021/10/12 09:11:01;;;;;;;15.35;11.10;;;10.00;95.30;;;;;;4865776;29;20033;-65
2021/10/12 09:13:27;;;;;;;16.85;10.95;;;10.00;95.30;;;;;;4875615;29;20052;-64
2021/10/12 09:16:10;;;;;;;17.35;11.13;;;10.00;95.30;;;;;;4873108;29;20051;-65
2021/10/12 09:18:55;;;;;;;;;;;10.00;95.30;;;;;;4876493;29;20064;-64
2021/10/12 09:21:28;;;;;;;15.20;9.90;;;10.00;95.10;;;;;;4876346;29;19912;-68
2021/10/12 09:24:11;;;;;;;18.45;10.23;;;10.00;95.10;;;;;;4875398;29;20040;-64
2021/10/12 09:26:42;;;;;;;17.00;10.55;;;10.00;95.20;;;;;;4882530;29;20069;-66
2021/10/12 09:29:16;;;;;;;33.85;22.00;;;10.00;95.20;;;;;;4883284;29;20072;-65
2021/10/12 09:31:45;;;;;;;19.63;13.30;;;10.10;95.30;;;;;;4883817;29;20025;-65
2021/10/12 09:34:13;;;;;;;15.57;10.27;;;10.20;95.30;;;;;;4882134;29;20033;-65
2021/10/12 09:36:40;;;;;;;16.88;9.65;;;10.20;95.20;;;;;;4881673;29;20037;-66
2021/10/12 09:39:14;;;;;;;13.00;8.93;;;10.20;95.10;;;;;;4879395;29;20025;-68
2021/10/12 09:41:40;;;;;;;11.82;8.32;;;10.20;95.10;;;;;;4882105;29;20089;-66
2021/10/12 09:44:12;;;;;;;13.65;7.88;;;10.30;95.00;;;;;;4873650;29;20395;-67
2021/10/12 09:46:38;;;;;;;13.37;6.93;;;10.30;95.00;;;;;;4864029;29;20030;-67
2021/10/12 09:49:24;;;;;;;9.68;7.00;;;10.30;95.00;;;;;;4865634;29;20043;-66
2021/10/12 09:51:56;;;;;;;12.57;7.30;;;10.30;94.80;;;;;;4879298;29;20036;-66
2021/10/12 09:54:23;;;;;;;;;;;10.30;94.80;;;;;;4879791;29;20021;-67
2021/10/12 09:56:49;;;;;;;16.27;9.10;;;10.40;94.70;;;;;;4882356;29;20009;-65
2021/10/12 09:59:16;;;;;;;9.48;6.85;;;10.30;94.70;;;;;;4878371;29;20427;-65
2021/10/12 10:01:44;;;;;;;10.52;7.32;;;10.30;94.70;;;;;;4879605;29;20501;-67
2021/10/12 10:04:10;;;;;;;10.23;7.35;;;10.30;94.70;;;;;;4877653;29;20040;-67
2021/10/12 10:06:41;;;;;;;12.77;7.63;;;10.30;94.70;;;;;;4879768;29;20048;-66
2021/10/12 10:09:08;;;;;;;13.77;8.02;;;10.30;94.70;;;;;;4878582;29;20116;-67
2021/10/12 10:11:35;;;;;;;13.00;8.18;;;10.30;94.70;;;;;;4879044;29;20055;-66
2021/10/12 10:14:01;;;;;;;11.60;8.00;;;10.30;94.70;;;;;;4876780;29;20069;-67
2021/10/12 10:16:28;;;;;;;10.65;8.02;;;10.20;94.70;;;;;;4878993;29;20506;-64
2021/10/12 10:18:54;;;;;;;12.52;8.93;;;10.30;94.80;;;;;;4876974;29;20037;-62
2021/10/12 10:21:20;;;;;;;11.60;8.15;;;10.30;94.80;;;;;;4878653;29;20037;-67
2021/10/12 10:24:02;;;;;;;12.25;8.18;;;10.30;94.80;;;;;;4876541;29;20556;-65
2021/10/12 10:26:32;;;;;;;18.73;8.85;;;10.30;94.80;;;;;;4876178;29;20041;-66
2021/10/12 10:29:21;;;;;;;13.75;8.43;;;10.30;94.80;;;;;;4879255;29;20048;-67
2021/10/12 10:31:52;;;;;;;12.52;9.40;;;10.30;94.80;;;;;;4877019;29;20033;-67
2021/10/12 10:34:40;;;;;;;17.70;9.02;;;10.20;95.00;;;;;;4878486;29;20033;-67
2021/10/12 10:37:17;;;;;;;13.55;8.68;;;10.30;94.90;;;;;;4876718;29;20028;-66
2021/10/12 10:39:48;;;;;;;14.27;9.27;;;10.30;94.90;;;;;;4875954;29;20749;-67
2021/10/12 10:42:41;;;;;;;15.63;8.43;;;10.30;94.90;;;;;;4873711;29;20447;-66
2021/10/12 10:45:08;;;;;;;12.38;7.65;;;10.40;95.00;;;;;;4850178;29;20045;-67
2021/10/12 10:47:50;;;;;;;12.55;7.53;;;10.40;94.80;;;;;;4868540;29;20048;-66
2021/10/12 10:50:27;;;;;;;11.30;7.07;;;10.40;94.90;;;;;;4874430;29;20029;-66
2021/10/12 10:52:55;;;;;;;12.20;7.18;;;10.40;94.90;;;;;;4874494;29;20144;-67
2021/10/12 10:55:24;;;;;;;13.30;7.25;;;10.50;94.80;;;;;;4875458;29;20032;-68
2021/10/12 10:58:18;;;;;;;11.05;6.32;;;10.60;94.90;;;;;;4875113;29;20086;-68
2021/10/12 11:00:53;;;;;;;11.32;6.18;;;10.60;94.80;;;;;;4865130;29;20048;-68
2021/10/12 11:03:36;;;;;;;13.63;6.13;;;10.60;94.80;;;;;;4873803;29;20065;-67
2021/10/12 11:06:12;;;;;;;13.63;6.63;;;10.70;94.90;;;;;;4874623;29;20045;-67
2021/10/12 11:08:40;;;;;;;7.85;6.07;;;10.70;94.80;;;;;;4875117;29;20041;-67
2021/10/12 11:11:07;;;;;;;10.52;5.95;;;10.80;94.80;;;;;;4875461;29;20119;-67
2021/10/12 11:13:44;;;;;;;8.77;6.30;;;10.90;94.60;;;;;;4874371;29;20427;-67
2021/10/12 11:16:12;;;;;;;10.23;5.82;;;11.00;94.70;;;;;;4874820;29;20402;-67
2021/10/12 11:18:39;;;;;;;10.63;5.90;;;11.00;94.50;;;;;;4873845;29;20430;-67
2021/10/12 11:21:08;;;;;;;10.45;5.93;;;11.10;94.50;;;;;;4871985;29;20040;-66
2021/10/12 11:23:38;;;;;;;7.90;5.47;;;11.10;94.50;;;;;;4874117;29;20390;-67
2021/10/12 11:26:12;;;;;;;9.40;5.70;;;11.10;94.40;;;;;;4874901;29;20100;-67
2021/10/12 11:28:46;;;;;;;10.75;5.45;;;11.10;94.30;;;;;;4875041;29;20037;-67
2021/10/12 11:31:14;;;;;;;7.30;5.30;;;11.10;94.50;;;;;;4875147;29;20455;-66
2021/10/12 11:33:48;;;;;;;8.25;5.50;;;11.00;94.20;;;;;;4869833;29;20040;-67
2021/10/12 11:36:20;;;;;;;9.30;6.28;;;10.90;94.20;;;;;;4874928;29;20029;-67
2021/10/12 11:38:53;;;;;;;8.90;5.85;;;10.90;94.20;;;;;;4874952;29;20017;-68
2021/10/12 11:41:23;;;;;;;9.05;5.32;;;10.90;94.20;;;;;;4873055;29;20115;-68
2021/10/12 11:43:51;;;;;;;10.20;6.05;;;10.90;94.10;;;;;;4873789;29;20498;-66
2021/10/12 11:46:28;;;;;;;8.02;4.80;;;10.90;94.20;;;;;;4874980;29;20493;-66
2021/10/12 11:48:54;;;;;;;9.45;4.95;;;10.90;94.20;;;;;;4886245;29;20621;-64
2021/10/12 11:51:29;;;;;;;11.68;5.10;;;10.90;94.20;;;;;;4874505;29;20107;-60
2021/10/12 11:53:56;;;;;;;7.75;4.53;;;11.00;94.20;;;;;;4873361;29;20066;-67
2021/10/12 11:56:23;;;;;;;9.85;6.00;;;11.00;94.00;;;;;;4869753;29;20665;-64
2021/10/12 11:58:57;;;;;;;7.90;4.82;;;11.10;94.10;;;;;;4874841;29;20142;-66
2021/10/12 12:01:29;;;;;;;10.93;5.95;;;11.10;94.10;;;;;;4875310;29;20056;-66
2021/10/12 12:03:55;;;;;;;8.55;4.25;;;11.10;93.90;;;;;;4873267;29;20568;-66
2021/10/12 12:06:24;;;;;;;7.63;4.28;;;11.10;93.80;;;;;;4875136;29;20071;-66
2021/10/12 12:08:51;;;;;;;7.75;4.55;;;11.00;93.80;;;;;;4873030;29;20033;-66
2021/10/12 12:11:20;;;;;;;8.20;4.95;;;11.00;93.80;;;;;;4873966;29;20029;-66
2021/10/12 12:13:48;;;;;;;7.05;4.28;;;11.00;93.90;;;;;;4871803;29;20025;-67
2021/10/12 12:16:17;;;;;;;7.15;4.07;;;11.00;93.80;;;;;;4944294;23;20069;-68
2021/10/12 12:18:43;;;;;;;6.45;4.00;;;11.00;93.80;;;;;;4882873;29;20028;-68
2021/10/12 12:21:08;;;;;;;7.72;3.53;;;11.00;93.80;;;;;;4877641;29;20205;-68
2021/10/12 12:23:41;;;;;;;7.20;3.55;;;11.10;93.70;;;;;;4889919;29;20024;-68
2021/10/12 12:26:12;;;;;;;6.95;3.65;;;11.10;93.60;;;;;;4889570;29;20036;-66
2021/10/12 12:28:39;;;;;;;7.75;3.78;;;11.00;93.50;;;;;;4895361;29;20028;-67
2021/10/12 12:31:18;;;;;;;8.70;4.15;;;11.00;93.50;;;;;;4893136;29;20500;-67
2021/10/12 12:33:45;;;;;;;7.72;4.07;;;11.00;93.50;;;;;;4894332;29;20020;-67
2021/10/12 12:36:11;;;;;;;6.75;4.10;;;11.00;93.60;;;;;;4894641;29;20040;-68
2021/10/12 12:38:37;;;;;;;6.82;3.90;;;11.10;93.70;;;;;;4889843;29;20040;-68
2021/10/12 12:41:19;;;;;;;7.95;4.22;;;11.10;93.70;;;;;;4889972;29;20052;-68
2021/10/12 12:43:56;;;;;;;9.75;4.88;;;11.10;93.80;;;;;;4893391;29;20504;-67
2021/10/12 12:46:24;;;;;;;9.85;4.50;;;11.10;93.70;;;;;;4887623;29;20119;-71